createdAt,value
2023-03-20T00:04:48.875Z,4.75
2023-03-20T00:09:52.124Z,4.70
2023-03-20T00:14:57.508Z,4.00
2023-03-20T00:20:01.391Z,5.18
2023-03-20T00:25:06.035Z,4.38
2023-03-20T00:30:21.130Z,4.53
2023-03-20T00:35:28.093Z,5.03
2023-03-20T00:40:32.066Z,4.90
2023-03-20T00:45:37.084Z,4.30
2023-03-20T00:50:40.863Z,5.18
2023-03-20T00:55:44.365Z,4.00
2023-03-20T01:00:50.812Z,4.38
2023-03-20T01:05:54.266Z,4.20
2023-03-20T01:10:58.871Z,4.38
2023-03-20T01:16:03.635Z,4.63
2023-03-20T01:21:08.981Z,5.38
2023-03-20T01:26:22.619Z,5.30
2023-03-20T01:31:27.399Z,5.00
2023-03-20T01:36:30.778Z,4.70
2023-03-20T01:41:34.239Z,5.40
2023-03-20T01:46:40.592Z,4.93
2023-03-20T01:51:53.175Z,4.60
2023-03-20T01:57:02.465Z,5.73
2023-03-20T02:02:08.447Z,4.32
2023-03-20T02:07:16.365Z,4.43
2023-03-20T02:12:25.608Z,4.97
2023-03-20T02:17:30.449Z,4.88
2023-03-20T02:23:15.577Z,4.70
2023-03-20T02:28:58.599Z,5.37
2023-03-20T02:34:29.771Z,4.85
2023-03-20T02:39:58.195Z,4.78
2023-03-20T02:45:11.620Z,4.70
2023-03-20T02:50:21.343Z,5.03
2023-03-20T02:55:34.002Z,5.00
2023-03-20T03:00:47.489Z,4.15
2023-03-20T03:05:57.939Z,4.30
2023-03-20T03:11:06.240Z,4.40
2023-03-20T03:16:13.541Z,4.90
2023-03-20T03:21:20.241Z,5.38
2023-03-20T03:26:30.484Z,4.70
2023-03-20T03:31:34.798Z,4.80
2023-03-20T03:36:48.091Z,4.90
2023-03-20T03:41:57.457Z,5.07
2023-03-20T03:47:08.051Z,4.35
2023-03-20T03:52:16.882Z,5.00
2023-03-20T03:57:25.724Z,4.75
2023-03-20T04:02:29.536Z,4.82
2023-03-20T04:07:34.003Z,5.22
2023-03-20T04:12:40.739Z,5.20
2023-03-20T04:17:46.533Z,4.88
2023-03-20T04:22:51.373Z,5.15
2023-03-20T04:27:56.648Z,5.10
2023-03-20T04:38:37.230Z,5.47
2023-03-20T04:43:42.375Z,5.30
2023-03-20T04:53:51.004Z,5.10
2023-03-20T04:58:56.254Z,5.47
2023-03-20T05:04:01.847Z,5.72
2023-03-20T05:09:09.366Z,5.78
2023-03-20T05:14:15.406Z,6.03
2023-03-20T05:19:32.486Z,6.18
2023-03-20T05:24:54.560Z,5.82
2023-03-20T05:30:14.340Z,6.68
2023-03-20T05:35:47.341Z,5.43
2023-03-20T05:41:00.170Z,6.03
2023-03-20T05:46:22.754Z,7.00
2023-03-20T05:51:45.003Z,7.65
2023-03-20T05:57:00.335Z,8.60
2023-03-20T06:02:14.392Z,11.45
2023-03-20T06:07:25.064Z,11.13
2023-03-20T06:12:42.298Z,12.15
2023-03-20T06:17:47.368Z,13.90
2023-03-20T06:22:51.864Z,13.15
2023-03-20T06:27:55.542Z,16.50
2023-03-20T06:33:01.818Z,18.40
2023-03-20T06:38:25.117Z,17.25
2023-03-20T06:43:29.593Z,17.17
2023-03-20T06:48:34.524Z,17.73
2023-03-20T06:53:44.126Z,17.77
2023-03-20T06:58:53.674Z,17.63
2023-03-20T07:03:59.217Z,15.75
2023-03-20T07:09:08.337Z,17.38
2023-03-20T07:14:14.488Z,17.00
2023-03-20T07:19:42.312Z,15.38
2023-03-20T07:24:47.312Z,16.90
2023-03-20T07:29:52.329Z,14.43
2023-03-20T07:34:57.453Z,15.17
2023-03-20T07:40:01.863Z,14.13
2023-03-20T07:45:11.379Z,14.60
2023-03-20T07:50:16.825Z,14.18
2023-03-20T07:55:20.506Z,14.50
2023-03-20T08:00:25.230Z,14.07
2023-03-20T08:05:32.124Z,12.88
2023-03-20T08:10:35.916Z,13.77
2023-03-20T08:15:40.025Z,12.95
2023-03-20T08:20:44.842Z,14.47
2023-03-20T08:25:49.420Z,12.37
2023-03-20T08:30:53.096Z,11.68
2023-03-20T08:35:59.079Z,12.38
2023-03-20T08:41:02.451Z,12.52
2023-03-20T08:46:06.348Z,11.35
2023-03-20T08:51:11.432Z,9.98
2023-03-20T08:56:14.671Z,9.32
2023-03-20T09:01:18.130Z,9.60
2023-03-20T09:06:22.955Z,8.77
2023-03-20T09:11:26.475Z,8.15
2023-03-20T09:16:29.926Z,7.80
2023-03-20T09:21:34.763Z,8.45
2023-03-20T09:26:38.256Z,8.25
2023-03-20T09:31:41.551Z,7.43
2023-03-20T09:36:46.263Z,6.55
2023-03-20T09:41:57.167Z,7.72
2023-03-20T09:47:19.702Z,6.50
2023-03-20T09:52:30.961Z,6.45
2023-03-20T09:57:39.377Z,5.97
2023-03-20T10:02:50.189Z,5.88
2023-03-20T10:07:58.086Z,5.90
2023-03-20T10:13:12.771Z,5.38
2023-03-20T10:18:22.875Z,6.15
2023-03-20T10:23:34.809Z,5.90
2023-03-20T10:28:43.300Z,6.30
2023-03-20T10:33:57.348Z,4.60
2023-03-20T10:39:09.916Z,5.50
2023-03-20T10:44:19.288Z,4.70
2023-03-20T10:49:29.985Z,4.22
2023-03-20T10:54:38.286Z,4.05
2023-03-20T10:59:45.326Z,4.05
2023-03-20T11:04:48.717Z,3.88
2023-03-20T11:10:12.261Z,4.18
2023-03-20T11:15:23.007Z,5.40
2023-03-20T11:20:31.528Z,4.60
2023-03-20T11:25:39.442Z,4.97
2023-03-20T11:31:01.375Z,4.55
2023-03-20T11:36:21.957Z,5.40
2023-03-20T11:41:28.299Z,4.18
2023-03-20T11:46:31.896Z,4.88
2023-03-20T11:51:38.086Z,5.32
2023-03-20T11:56:52.662Z,4.55
2023-03-20T12:01:57.564Z,4.80
2023-03-20T12:07:05.358Z,4.72
2023-03-20T12:12:17.507Z,5.82
2023-03-20T12:17:42.876Z,5.38
2023-03-20T12:22:53.169Z,5.63
2023-03-20T12:28:03.926Z,4.82
2023-03-20T12:33:12.176Z,5.60
2023-03-20T12:38:24.830Z,5.90
2023-03-20T12:43:36.139Z,5.72
2023-03-20T12:48:55.820Z,4.60
2023-03-20T12:54:15.647Z,5.05
2023-03-20T12:59:27.629Z,4.78
2023-03-20T13:04:45.111Z,5.07
2023-03-20T13:10:06.489Z,6.85
2023-03-20T13:15:26.405Z,5.97
2023-03-20T13:20:32.279Z,5.65
2023-03-20T13:25:53.874Z,5.63
2023-03-20T13:31:06.563Z,6.25
2023-03-20T13:36:24.345Z,5.72
2023-03-20T13:41:28.660Z,5.95
2023-03-20T13:46:38.061Z,6.40
2023-03-20T13:51:48.540Z,7.15
2023-03-20T13:56:57.497Z,10.40
2023-03-20T14:02:12.814Z,7.75
2023-03-20T14:07:38.148Z,6.72
2023-03-20T14:12:41.637Z,6.68
2023-03-20T14:17:48.279Z,5.47
2023-03-20T14:22:52.005Z,6.20
2023-03-20T14:27:57.563Z,6.90
2023-03-20T14:33:06.792Z,5.53
2023-03-20T14:38:20.680Z,5.88
2023-03-20T14:43:40.582Z,6.40
2023-03-20T14:48:50.646Z,5.10
2023-03-20T14:53:57.474Z,7.10
2023-03-20T14:59:04.061Z,5.70
2023-03-20T15:04:13.654Z,6.20
2023-03-20T15:09:19.970Z,6.93
2023-03-20T15:14:27.388Z,6.57
2023-03-20T15:19:33.647Z,8.32
2023-03-20T15:24:36.946Z,6.45
2023-03-20T15:29:45.906Z,7.15
2023-03-20T15:34:51.283Z,6.70
2023-03-20T15:40:00.285Z,7.97
2023-03-20T15:45:21.510Z,5.43
2023-03-20T15:50:27.121Z,5.75
2023-03-20T15:55:30.810Z,5.75
2023-03-20T16:00:39.902Z,6.43
2023-03-20T16:05:46.659Z,5.88
2023-03-20T16:10:54.368Z,5.70
2023-03-20T16:15:58.242Z,6.05
2023-03-20T16:21:07.355Z,5.82
2023-03-20T16:26:16.509Z,6.30
2023-03-20T16:31:26.162Z,5.97
2023-03-20T16:36:32.666Z,5.28
2023-03-20T16:41:37.922Z,5.15
2023-03-20T16:46:56.984Z,6.80
2023-03-20T16:52:04.814Z,5.57
2023-03-20T16:57:10.639Z,5.32
2023-03-20T17:02:25.278Z,5.93
2023-03-20T17:07:31.500Z,7.70
2023-03-20T17:12:37.015Z,5.53
2023-03-20T17:17:41.031Z,5.40
2023-03-20T17:22:46.416Z,5.75
2023-03-20T17:32:53.699Z,4.50
2023-03-20T17:37:59.472Z,5.63
2023-03-20T17:43:02.811Z,8.32
2023-03-20T17:48:06.862Z,7.00
2023-03-20T17:53:16.808Z,8.20
2023-03-20T17:58:22.764Z,7.20
2023-03-20T18:03:26.310Z,7.60
2023-03-20T18:08:31.171Z,6.95
2023-03-20T18:13:34.801Z,6.18
2023-03-20T18:18:38.158Z,4.80
2023-03-20T18:23:42.987Z,5.85
2023-03-20T18:28:46.982Z,5.85
2023-03-20T18:33:51.876Z,5.22
2023-03-20T18:38:57.242Z,7.22
2023-03-20T18:44:00.761Z,5.68
2023-03-20T18:49:04.332Z,6.03
2023-03-20T18:54:09.212Z,6.25
2023-03-20T18:59:13.701Z,6.97
2023-03-20T19:04:18.055Z,7.15
2023-03-20T19:09:23.225Z,6.30
2023-03-20T19:14:27.137Z,6.32
2023-03-20T19:19:30.920Z,6.40
2023-03-20T19:24:35.989Z,6.97
2023-03-20T19:29:40.290Z,6.05
2023-03-20T19:40:22.326Z,7.03
2023-03-20T19:45:27.831Z,6.50
2023-03-20T19:50:36.185Z,6.43
2023-03-20T19:55:41.291Z,6.25
2023-03-20T20:01:01.001Z,7.93
2023-03-20T20:06:04.960Z,7.75
2023-03-20T20:11:12.952Z,6.35
2023-03-20T20:16:16.402Z,5.90
2023-03-20T20:22:09.740Z,6.88
2023-03-20T20:26:54.398Z,6.20
2023-03-20T20:31:59.880Z,6.22
2023-03-20T20:42:27.866Z,6.10
2023-03-20T20:47:31.961Z,7.47
2023-03-20T20:52:37.010Z,6.77
2023-03-20T20:57:41.941Z,6.78
2023-03-20T21:02:45.468Z,7.47
2023-03-20T21:07:50.289Z,7.53
2023-03-20T21:12:59.461Z,6.75
2023-03-20T21:18:04.280Z,8.45
2023-03-20T21:23:07.718Z,8.63
2023-03-20T21:28:13.384Z,7.10
2023-03-20T21:33:16.785Z,6.90
2023-03-20T21:43:47.331Z,7.00
2023-03-20T21:55:00.778Z,9.05
2023-03-20T22:00:15.036Z,8.23
2023-03-20T22:05:50.091Z,7.75
2023-03-20T22:21:55.846Z,8.68
2023-03-20T22:27:26.952Z,10.02
2023-03-20T22:32:48.608Z,8.85
2023-03-20T22:43:15.502Z,8.68
2023-03-20T22:48:15.554Z,8.65
2023-03-20T22:58:22.583Z,8.20
2023-03-20T23:03:40.965Z,9.05
2023-03-20T23:08:50.828Z,7.88
2023-03-20T23:13:58.020Z,6.43
2023-03-20T23:19:02.745Z,7.63
2023-03-20T23:29:10.276Z,6.75
2023-03-20T23:34:17.775Z,5.78
2023-03-20T23:39:21.297Z,6.80
2023-03-20T23:44:25.393Z,7.20
2023-03-20T23:49:30.387Z,7.13
2023-03-20T23:54:33.741Z,5.97
2023-03-20T23:59:37.377Z,6.13
